Time;durP1;ratioP1;P1;durP2;ratioP2;P2;SDS_P1;SDS_P2;PMS_P1;PMS_P2;Temp;Humidity;BMP_temperature;BMP_pressure;BME280_temperature;BME280_humidity;BME280_pressure;Samples;Min_cycle;Max_cycle;Signal;HPM_P1;HPM_P2
2023/02/28 00:00:01;;;;;;;3.50;3.20;;;-1.20;99.90;;;;;;484859;245;27466;-76
2023/02/28 00:02:02;;;;;;;2.90;2.70;;;-1.20;99.90;;;;;;484845;245;27407;-75
2023/02/28 00:04:03;;;;;;;3.30;2.85;;;-1.30;99.90;;;;;;474395;250;27683;-75
2023/02/28 00:06:05;;;;;;;2.80;2.55;;;-1.30;99.90;;;;;;484892;245;27368;-75
2023/02/28 00:08:06;;;;;;;3.85;2.97;;;-1.30;99.90;;;;;;474414;250;28006;-76
2023/02/28 00:10:07;;;;;;;3.00;2.80;;;-1.30;99.90;;;;;;484896;245;27370;-77
2023/02/28 00:12:10;;;;;;;3.90;2.90;;;-1.40;99.90;;;;;;474398;250;27618;-76
2023/02/28 00:14:10;;;;;;;2.97;2.67;;;-1.40;99.90;;;;;;484845;245;27890;-76
2023/02/28 00:16:11;;;;;;;5.75;2.75;;;-1.40;99.90;;;;;;484886;245;27827;-76
2023/02/28 00:18:13;;;;;;;2.60;2.40;;;-1.40;99.90;;;;;;474403;250;27982;-75
2023/02/28 00:20:13;;;;;;;2.70;2.50;;;-1.50;99.90;;;;;;484858;245;27455;-75
2023/02/28 00:22:15;;;;;;;2.72;2.47;;;-1.50;99.90;;;;;;474366;250;27607;-75
2023/02/28 00:24:16;;;;;;;3.10;2.42;;;-1.50;99.90;;;;;;484855;245;27485;-75
2023/02/28 00:26:17;;;;;;;3.33;2.58;;;-1.60;99.90;;;;;;474386;250;27593;-76
2023/02/28 00:28:18;;;;;;;3.20;3.00;;;-1.50;99.90;;;;;;484867;245;27517;-76
2023/02/28 00:30:20;;;;;;;2.75;2.55;;;-1.50;99.90;;;;;;474369;250;27556;-76
2023/02/28 00:32:21;;;;;;;3.42;2.83;;;-1.60;99.90;;;;;;484844;245;27458;-76
2023/02/28 00:34:22;;;;;;;2.78;2.55;;;-1.60;99.90;;;;;;474318;250;29126;-75
2023/02/28 00:36:24;;;;;;;2.80;2.60;;;-1.60;99.90;;;;;;484870;245;27929;-74
2023/02/28 00:38:25;;;;;;;3.20;2.90;;;-1.60;99.90;;;;;;474367;250;29087;-75
2023/02/28 00:40:26;;;;;;;4.05;2.90;;;-1.70;99.90;;;;;;484847;245;27356;-75
2023/02/28 00:42:27;;;;;;;6.87;2.97;;;-1.70;99.90;;;;;;474358;250;27678;-76
2023/02/28 00:44:29;;;;;;;3.50;3.20;;;-1.70;99.90;;;;;;484848;245;27501;-75
2023/02/28 00:46:30;;;;;;;4.45;3.60;;;-1.70;99.90;;;;;;474404;250;27524;-76
2023/02/28 00:48:31;;;;;;;5.25;3.08;;;-1.70;99.90;;;;;;484837;245;27485;-75
2023/02/28 00:50:32;;;;;;;7.10;3.20;;;-1.70;99.90;;;;;;474371;250;27487;-75
2023/02/28 00:52:34;;;;;;;3.15;2.95;;;-1.80;99.90;;;;;;484841;245;27415;-76
2023/02/28 00:54:35;;;;;;;5.30;3.67;;;-1.70;99.90;;;;;;474356;250;28845;-76
2023/02/28 00:56:36;;;;;;;4.47;2.80;;;-1.80;99.90;;;;;;484871;245;27948;-76
2023/02/28 00:58:37;;;;;;;4.28;3.70;;;-1.80;99.90;;;;;;474379;250;28006;-74
2023/02/28 01:00:39;;;;;;;4.87;3.30;;;-1.80;99.90;;;;;;484855;245;27422;-75
2023/02/28 01:02:40;;;;;;;3.67;3.37;;;-1.80;99.90;;;;;;474351;250;27538;-75
2023/02/28 01:04:41;;;;;;;4.75;3.60;;;-1.90;99.90;;;;;;484849;245;27454;-75
2023/02/28 01:06:42;;;;;;;6.80;3.67;;;-1.90;99.90;;;;;;474362;250;27487;-76
2023/02/28 01:08:44;;;;;;;5.90;3.78;;;-1.90;99.90;;;;;;484882;245;27413;-75
2023/02/28 01:10:45;;;;;;;7.12;3.37;;;-1.90;99.90;;;;;;474341;250;27512;-76
2023/02/28 01:12:46;;;;;;;6.00;3.60;;;-1.90;99.90;;;;;;484871;245;27516;-74
2023/02/28 01:14:47;;;;;;;4.60;3.47;;;-2.00;99.90;;;;;;484845;245;27834;-76
2023/02/28 01:16:49;;;;;;;5.25;3.53;;;-2.00;99.90;;;;;;474372;250;29160;-76
2023/02/28 01:18:50;;;;;;;3.87;3.08;;;-2.00;99.90;;;;;;484896;245;27490;-77
2023/02/28 01:20:52;;;;;;;3.90;2.92;;;-2.00;99.90;;;;;;474377;250;27488;-75
2023/02/28 01:22:52;;;;;;;6.10;3.80;;;-2.00;99.90;;;;;;484863;245;27418;-76
2023/02/28 01:24:54;;;;;;;4.70;3.53;;;-2.00;99.90;;;;;;484845;245;27370;-75
2023/02/28 01:26:55;;;;;;;3.92;3.35;;;-2.00;99.90;;;;;;474369;250;27428;-76
2023/02/28 01:28:56;;;;;;;3.90;3.08;;;-2.00;99.90;;;;;;484875;245;27372;-75
2023/02/28 01:30:57;;;;;;;3.58;3.08;;;-2.00;99.90;;;;;;474337;250;27175;-75
2023/02/28 01:32:59;;;;;;;3.67;3.30;;;-1.90;99.90;;;;;;484846;245;27433;-75
2023/02/28 01:35:00;;;;;;;4.35;3.20;;;-2.00;99.90;;;;;;474351;250;28129;-77
2023/02/28 01:37:01;;;;;;;3.60;3.30;;;-2.00;99.90;;;;;;484840;245;29044;-75
2023/02/28 01:39:02;;;;;;;8.88;3.70;;;-2.00;99.90;;;;;;474350;250;27549;-76
2023/02/28 01:41:04;;;;;;;3.20;3.00;;;-2.00;99.90;;;;;;484872;245;27443;-76
2023/02/28 01:43:05;;;;;;;3.70;2.87;;;-2.00;99.90;;;;;;484850;245;27501;-74
2023/02/28 01:45:06;;;;;;;4.18;3.45;;;-2.00;99.90;;;;;;474368;250;27552;-76
2023/02/28 01:47:07;;;;;;;4.95;3.40;;;-2.10;99.90;;;;;;484815;245;27488;-76
2023/02/28 01:49:09;;;;;;;3.70;3.40;;;-2.10;99.90;;;;;;484868;245;27764;-75
2023/02/28 01:51:10;;;;;;;6.93;4.70;;;-2.10;99.90;;;;;;474369;250;27462;-76
2023/02/28 01:53:11;;;;;;;3.10;2.90;;;-2.10;99.90;;;;;;484823;245;27505;-75
2023/02/28 01:55:12;;;;;;;4.45;3.95;;;-2.10;99.90;;;;;;484826;245;27827;-75
2023/02/28 01:57:14;;;;;;;7.70;4.30;;;-2.10;99.90;;;;;;474354;250;28003;-76
2023/02/28 01:59:15;;;;;;;5.55;3.53;;;-2.10;99.90;;;;;;484857;245;28330;-76
2023/02/28 02:01:21;;;;;;;4.75;3.83;;;-2.10;99.90;;;;;;474375;250;27481;-76
2023/02/28 02:03:18;;;;;;;7.55;4.18;;;-2.10;99.90;;;;;;484500;245;27437;-77
2023/02/28 02:05:19;;;;;;;7.20;4.75;;;-2.20;99.90;;;;;;484800;245;27376;-76
2023/02/28 02:07:20;;;;;;;6.55;3.60;;;-2.20;99.90;;;;;;474384;250;27542;-77
2023/02/28 02:09:22;;;;;;;5.97;4.40;;;-2.20;99.90;;;;;;484870;245;27447;-75
2023/02/28 02:11:22;;;;;;;4.95;3.58;;;-2.10;99.90;;;;;;474314;251;27483;-76
2023/02/28 02:13:24;;;;;;;6.22;4.87;;;-2.10;99.90;;;;;;484858;245;27410;-75
2023/02/28 02:15:25;;;;;;;4.87;4.05;;;-2.20;99.90;;;;;;474373;251;27951;-75
2023/02/28 02:17:26;;;;;;;7.12;5.20;;;-2.20;99.90;;;;;;484844;245;29031;-75
2023/02/28 02:19:27;;;;;;;6.72;3.92;;;-2.10;99.90;;;;;;474370;250;27495;-75
2023/02/28 02:21:29;;;;;;;6.85;4.75;;;-2.20;99.90;;;;;;484860;245;27370;-76
2023/02/28 02:23:30;;;;;;;4.65;4.10;;;-2.20;99.90;;;;;;484894;245;27407;-74
2023/02/28 02:25:31;;;;;;;7.80;4.43;;;-2.30;99.90;;;;;;474417;250;27484;-77
2023/02/28 02:27:32;;;;;;;9.65;5.20;;;-2.30;99.90;;;;;;484918;245;27504;-76
2023/02/28 02:29:34;;;;;;;11.95;4.50;;;-2.30;99.90;;;;;;474431;250;27495;-77
2023/02/28 02:31:35;;;;;;;5.45;4.50;;;-2.30;99.90;;;;;;484849;245;27490;-76
2023/02/28 02:33:37;;;;;;;6.37;4.25;;;-2.30;99.90;;;;;;474321;250;28058;-75
2023/02/28 02:35:39;;;;;;;5.00;4.47;;;-2.40;99.90;;;;;;484878;245;27846;-75
2023/02/28 02:37:39;;;;;;;5.78;3.83;;;-2.30;99.90;;;;;;484762;245;27851;-76
2023/02/28 02:39:40;;;;;;;5.53;4.12;;;-2.40;99.90;;;;;;484856;245;27390;-75
2023/02/28 02:41:41;;;;;;;5.95;4.55;;;-2.40;99.90;;;;;;484854;245;27418;-76
2023/02/28 02:43:42;;;;;;;6.10;4.53;;;-2.40;99.90;;;;;;474379;250;27555;-76
2023/02/28 02:45:44;;;;;;;4.62;4.22;;;-2.40;99.90;;;;;;484870;245;27372;-75
2023/02/28 02:47:45;;;;;;;6.60;5.10;;;-2.50;99.90;;;;;;474406;250;27464;-76
2023/02/28 02:49:46;;;;;;;5.65;4.55;;;-2.50;99.90;;;;;;484880;245;27375;-75
2023/02/28 02:51:48;;;;;;;5.50;4.60;;;-2.50;99.90;;;;;;484867;245;27433;-76
2023/02/28 02:53:49;;;;;;;5.15;4.65;;;-2.60;99.90;;;;;;474397;250;27997;-76
2023/02/28 02:55:54;;;;;;;5.43;4.97;;;-2.50;99.90;;;;;;484881;245;27964;-74
2023/02/28 02:57:51;;;;;;;4.93;4.50;;;-2.60;99.90;;;;;;474152;251;28155;-75
2023/02/28 02:59:53;;;;;;;6.65;4.60;;;-2.60;99.90;;;;;;484852;245;27238;-76
2023/02/28 03:01:54;;;;;;;5.53;4.93;;;-2.60;99.90;;;;;;474370;250;27520;-76
2023/02/28 03:03:55;;;;;;;4.82;4.40;;;-2.60;99.90;;;;;;484886;245;27544;-76
2023/02/28 03:05:56;;;;;;;4.70;4.20;;;-2.70;99.90;;;;;;474405;250;27503;-76
2023/02/28 03:07:58;;;;;;;6.00;4.72;;;-2.70;99.90;;;;;;484859;245;27338;-75
2023/02/28 03:09:59;;;;;;;6.72;4.97;;;-2.70;99.90;;;;;;474376;250;27484;-75
2023/02/28 03:12:00;;;;;;;5.30;4.80;;;-2.60;99.90;;;;;;484862;245;27430;-75
2023/02/28 03:14:01;;;;;;;5.07;4.50;;;-2.60;99.90;;;;;;474379;250;28012;-74
2023/02/28 03:16:03;;;;;;;5.20;4.60;;;-2.70;99.90;;;;;;484859;245;27852;-75
2023/02/28 03:18:04;;;;;;;4.97;4.55;;;-2.70;99.90;;;;;;484868;245;27873;-76
2023/02/28 03:20:06;;;;;;;5.37;4.87;;;-2.70;99.90;;;;;;474329;250;27475;-76
2023/02/28 03:22:06;;;;;;;6.30;4.87;;;-2.70;99.90;;;;;;484828;245;27414;-76
2023/02/28 03:24:08;;;;;;;7.72;5.28;;;-2.60;99.90;;;;;;474367;250;27520;-76
2023/02/28 03:26:09;;;;;;;6.90;5.15;;;-2.70;99.90;;;;;;484855;245;27390;-75
2023/02/28 03:28:10;;;;;;;7.37;5.68;;;-2.70;99.90;;;;;;474354;250;27322;-74
2023/02/28 03:30:11;;;;;;;6.00;5.32;;;-2.70;99.90;;;;;;484801;245;27133;-76
2023/02/28 03:32:14;;;;;;;7.18;5.72;;;-2.70;99.90;;;;;;474317;250;27536;-75
2023/02/28 03:34:14;;;;;;;6.20;5.20;;;-2.70;99.90;;;;;;484757;245;27947;-77
2023/02/28 03:36:15;;;;;;;6.00;5.40;;;-2.70;99.90;;;;;;484837;245;27890;-76
2023/02/28 03:38:16;;;;;;;5.62;5.05;;;-2.70;99.90;;;;;;474352;250;27955;-75
2023/02/28 03:40:18;;;;;;;6.15;4.80;;;-2.80;99.90;;;;;;484861;245;27193;-76
2023/02/28 03:42:19;;;;;;;6.43;5.80;;;-2.80;99.90;;;;;;473901;251;27525;-75
2023/02/28 03:44:20;;;;;;;9.38;5.70;;;-2.80;99.90;;;;;;484813;245;27482;-76
2023/02/28 03:46:21;;;;;;;6.50;4.45;;;-2.80;99.90;;;;;;484835;245;27382;-76
2023/02/28 03:48:23;;;;;;;5.60;5.07;;;-2.80;99.90;;;;;;474368;250;27414;-76
2023/02/28 03:50:24;;;;;;;7.10;5.60;;;-2.80;99.90;;;;;;484841;245;27447;-76
2023/02/28 03:52:25;;;;;;;6.30;5.68;;;-2.80;99.90;;;;;;474368;249;27094;-75
2023/02/28 03:54:26;;;;;;;9.00;6.75;;;-2.80;99.90;;;;;;484859;245;28415;-76
2023/02/28 03:56:28;;;;;;;6.00;5.40;;;-2.80;99.90;;;;;;474393;250;28922;-76
2023/02/28 03:58:29;;;;;;;5.50;5.00;;;-2.90;99.90;;;;;;484867;245;27960;-76
2023/02/28 04:00:30;;;;;;;5.82;5.28;;;-2.80;99.90;;;;;;474388;250;27447;-76
2023/02/28 04:02:33;;;;;;;10.93;5.78;;;;;;;;;;484877;245;27282;-75
2023/02/28 04:04:34;;;;;;;8.65;6.30;;;-2.90;99.90;;;;;;474393;251;27072;-74
2023/02/28 04:06:35;;;;;;;8.10;5.90;;;-2.90;99.90;;;;;;484870;245;27403;-76
2023/02/28 04:08:36;;;;;;;8.85;5.18;;;-2.90;99.90;;;;;;474387;250;27177;-76
2023/02/28 04:10:38;;;;;;;13.55;5.85;;;-2.90;99.90;;;;;;484863;245;27471;-75
2023/02/28 04:12:39;;;;;;;5.90;5.18;;;-2.90;99.90;;;;;;474376;250;27403;-76
2023/02/28 04:14:40;;;;;;;6.10;5.50;;;-3.00;99.90;;;;;;484837;245;27537;-75
2023/02/28 04:16:41;;;;;;;6.68;5.72;;;-3.00;99.90;;;;;;474386;250;27217;-75
2023/02/28 04:18:46;;;;;;;6.85;6.15;;;-3.00;99.90;;;;;;484847;245;27252;-76
2023/02/28 04:20:47;;;;;;;5.32;4.65;;;-3.10;99.90;;;;;;474388;250;27370;-76
2023/02/28 04:22:48;;;;;;;7.55;5.12;;;-3.10;99.90;;;;;;484853;245;27352;-76
2023/02/28 04:24:49;;;;;;;5.97;5.37;;;-3.10;99.90;;;;;;474372;250;27519;-76
2023/02/28 04:26:51;;;;;;;7.70;5.50;;;-3.10;99.90;;;;;;484870;245;27166;-74
2023/02/28 04:28:52;;;;;;;7.50;5.70;;;-3.10;99.90;;;;;;474392;250;27527;-76
2023/02/28 04:30:53;;;;;;;6.37;5.53;;;-3.10;99.90;;;;;;484879;245;27286;-75
2023/02/28 04:32:54;;;;;;;5.62;5.12;;;-3.10;99.90;;;;;;474385;250;27531;-75
2023/02/28 04:34:56;;;;;;;6.40;5.55;;;-3.10;99.90;;;;;;484879;245;27353;-76
2023/02/28 04:36:57;;;;;;;10.02;6.40;;;-3.10;99.90;;;;;;474376;250;27936;-76
2023/02/28 04:38:58;;;;;;;6.40;5.80;;;-3.10;99.90;;;;;;484872;245;27872;-76
2023/02/28 04:40:59;;;;;;;6.70;6.10;;;-3.10;99.90;;;;;;474359;250;27264;-76
2023/02/28 04:43:01;;;;;;;6.80;5.90;;;-3.20;99.90;;;;;;484857;245;27365;-76
2023/02/28 04:45:02;;;;;;;8.38;5.93;;;-3.20;99.90;;;;;;474359;250;27189;-76
2023/02/28 04:47:03;;;;;;;7.20;6.03;;;-3.20;99.90;;;;;;484893;245;26915;-75
2023/02/28 04:49:04;;;;;;;7.40;6.05;;;-3.20;99.90;;;;;;474378;250;27134;-75
2023/02/28 04:51:06;;;;;;;10.38;8.48;;;-3.20;99.90;;;;;;484861;245;27065;-76
2023/02/28 04:53:07;;;;;;;6.80;6.07;;;-3.30;99.90;;;;;;474372;250;27303;-75
2023/02/28 04:55:08;;;;;;;8.95;6.12;;;-3.20;99.90;;;;;;484865;245;27653;-77
2023/02/28 04:57:09;;;;;;;7.18;5.72;;;-3.20;99.90;;;;;;484845;245;27839;-76
2023/02/28 04:59:11;;;;;;;6.35;5.65;;;-3.20;99.90;;;;;;474396;250;27771;-76
2023/02/28 05:01:12;;;;;;;6.90;5.50;;;-3.30;99.90;;;;;;484869;245;27251;-76
2023/02/28 05:03:13;;;;;;;7.72;6.22;;;-3.30;99.90;;;;;;474364;250;27202;-77
2023/02/28 05:05:17;;;;;;;6.82;6.18;;;-3.20;99.90;;;;;;484871;245;27075;-78
2023/02/28 05:07:16;;;;;;;6.70;6.10;;;-3.20;99.90;;;;;;474213;251;27382;-76
2023/02/28 05:09:17;;;;;;;7.75;5.68;;;-3.30;99.90;;;;;;484866;245;27237;-74
2023/02/28 05:11:18;;;;;;;7.55;6.05;;;-3.30;99.90;;;;;;474391;250;27041;-76
2023/02/28 05:13:19;;;;;;;6.95;6.05;;;-3.20;99.90;;;;;;484852;245;27142;-76
2023/02/28 05:15:21;;;;;;;9.52;6.60;;;-3.30;99.90;;;;;;474418;250;27774;-75
2023/02/28 05:17:22;;;;;;;6.80;6.10;;;-3.30;99.90;;;;;;484899;245;27573;-75
2023/02/28 05:19:23;;;;;;;6.47;5.57;;;-3.30;99.90;;;;;;474399;250;28849;-76
2023/02/28 05:21:25;;;;;;;6.90;6.10;;;-3.30;99.90;;;;;;484874;245;27024;-76
2023/02/28 05:23:26;;;;;;;7.03;5.32;;;-3.30;99.90;;;;;;474374;250;27085;-77
2023/02/28 05:25:27;;;;;;;6.28;5.55;;;-3.30;99.90;;;;;;484848;245;27086;-76
2023/02/28 05:27:28;;;;;;;7.10;6.03;;;-3.30;99.90;;;;;;474340;250;27102;-76
2023/02/28 05:29:29;;;;;;;9.82;6.12;;;-3.30;99.90;;;;;;484820;245;27174;-76
2023/02/28 05:31:31;;;;;;;6.65;5.95;;;-3.30;99.90;;;;;;474231;250;27166;-76
2023/02/28 05:33:32;;;;;;;6.93;6.28;;;-3.30;99.90;;;;;;484493;245;26974;-76
2023/02/28 05:35:33;;;;;;;7.50;6.35;;;-3.30;99.90;;;;;;474364;250;27864;-76
2023/02/28 05:37:35;;;;;;;6.40;5.70;;;-3.30;99.90;;;;;;484854;245;27831;-75
2023/02/28 05:39:36;;;;;;;8.80;6.60;;;-3.30;99.90;;;;;;474364;250;28863;-76
2023/02/28 05:41:37;;;;;;;7.50;6.03;;;-3.30;99.90;;;;;;484847;245;27095;-76
2023/02/28 05:43:40;;;;;;;10.43;7.22;;;;;;;;;;474364;250;27291;-75
2023/02/28 05:45:41;;;;;;;9.45;7.35;;;-3.30;99.90;;;;;;474360;249;27375;-75
2023/02/28 05:47:42;;;;;;;6.60;5.95;;;-3.30;99.90;;;;;;484839;245;27889;-75
2023/02/28 05:49:43;;;;;;;7.93;6.53;;;-3.30;99.90;;;;;;484852;245;28599;-75
2023/02/28 05:51:44;;;;;;;8.45;6.65;;;-3.20;99.90;;;;;;474371;250;27138;-75
2023/02/28 05:53:46;;;;;;;8.57;6.68;;;-3.20;99.90;;;;;;484867;245;27073;-76
2023/02/28 05:55:47;;;;;;;7.45;6.65;;;-3.20;99.90;;;;;;474378;250;27061;-76
2023/02/28 05:57:48;;;;;;;8.95;6.68;;;-3.20;99.90;;;;;;484869;245;27127;-76
2023/02/28 05:59:49;;;;;;;8.57;7.22;;;-3.20;99.90;;;;;;474374;250;27293;-76
2023/02/28 06:01:52;;;;;;;8.18;6.95;;;-3.20;99.90;;;;;;484887;245;27109;-75
2023/02/28 06:03:52;;;;;;;7.45;6.10;;;-3.20;99.90;;;;;;474291;251;27329;-75
2023/02/28 06:05:53;;;;;;;8.77;7.00;;;-3.20;99.90;;;;;;484864;245;27866;-76
2023/02/28 06:07:54;;;;;;;8.63;6.62;;;-3.20;99.90;;;;;;474403;250;28002;-76
2023/02/28 06:09:56;;;;;;;8.98;6.60;;;-3.10;99.90;;;;;;484867;245;28862;-76
2023/02/28 06:11:57;;;;;;;8.55;6.37;;;-3.10;99.90;;;;;;474363;250;27382;-76
2023/02/28 06:13:59;;;;;;;9.90;7.55;;;-3.10;99.90;;;;;;484887;245;27055;-76
2023/02/28 06:16:00;;;;;;;7.60;6.80;;;-3.10;99.90;;;;;;474355;250;27285;-76
2023/02/28 06:18:01;;;;;;;7.32;6.57;;;-3.00;99.90;;;;;;484879;245;27363;-76
2023/02/28 06:20:02;;;;;;;8.65;7.70;;;-3.10;99.90;;;;;;474387;250;27289;-76
2023/02/28 06:22:04;;;;;;;7.57;6.80;;;-3.00;99.90;;;;;;484873;245;27072;-76
2023/02/28 06:24:05;;;;;;;10.30;6.65;;;-3.00;99.90;;;;;;474373;250;27463;-76
2023/02/28 06:26:06;;;;;;;9.77;7.35;;;-3.00;99.90;;;;;;484885;245;27693;-76
2023/02/28 06:28:07;;;;;;;7.95;6.00;;;-3.00;99.90;;;;;;474401;250;28975;-76
2023/02/28 06:30:08;;;;;;;8.60;6.80;;;-3.00;99.90;;;;;;484915;245;27151;-77
2023/02/28 06:32:10;;;;;;;10.57;6.57;;;-3.00;99.90;;;;;;474385;250;27305;-76
2023/02/28 06:34:14;;;;;;;9.55;6.95;;;-3.00;99.90;;;;;;484900;245;27490;-76
2023/02/28 06:36:12;;;;;;;9.02;7.10;;;-3.00;99.90;;;;;;484358;245;27243;-76
2023/02/28 06:38:13;;;;;;;8.05;7.12;;;-3.00;99.90;;;;;;474396;250;27191;-75
2023/02/28 06:40:15;;;;;;;10.35;7.65;;;-3.00;99.90;;;;;;484876;245;27134;-76
2023/02/28 06:42:16;;;;;;;7.70;7.00;;;-3.00;99.90;;;;;;474380;250;27408;-77
2023/02/28 06:44:17;;;;;;;7.47;6.60;;;-3.00;99.90;;;;;;484834;245;27976;-74
2023/02/28 06:46:18;;;;;;;9.25;7.40;;;-3.00;99.90;;;;;;484889;245;27691;-76
2023/02/28 06:48:20;;;;;;;8.27;6.57;;;-3.00;99.90;;;;;;474348;250;27925;-76
2023/02/28 06:50:21;;;;;;;10.38;6.78;;;-3.00;99.90;;;;;;484855;245;27142;-75
2023/02/28 06:52:22;;;;;;;10.02;8.13;;;-3.00;99.90;;;;;;484848;245;27330;-75
2023/02/28 06:54:23;;;;;;;10.27;7.97;;;-3.00;99.90;;;;;;474390;250;27545;-76
2023/02/28 06:56:25;;;;;;;8.20;7.03;;;-2.90;99.90;;;;;;484878;245;27028;-76
2023/02/28 06:58:26;;;;;;;9.38;7.30;;;-2.90;99.90;;;;;;474385;250;28832;-76
2023/02/28 07:00:27;;;;;;;10.20;7.53;;;-2.90;99.90;;;;;;484860;245;27438;-75
2023/02/28 07:02:28;;;;;;;9.00;6.70;;;-2.80;99.90;;;;;;474352;250;27811;-75
2023/02/28 07:04:30;;;;;;;8.85;6.80;;;-2.80;99.90;;;;;;484858;245;28971;-77
2023/02/28 07:06:31;;;;;;;8.85;7.50;;;-2.80;99.90;;;;;;474396;250;27908;-76
2023/02/28 07:08:32;;;;;;;9.82;7.43;;;-2.80;99.90;;;;;;484854;245;27391;-75
2023/02/28 07:10:33;;;;;;;10.35;7.22;;;-2.80;99.90;;;;;;474394;251;27389;-75
2023/02/28 07:12:35;;;;;;;9.38;7.87;;;-2.80;99.90;;;;;;484873;245;27485;-75
2023/02/28 07:14:36;;;;;;;9.13;7.32;;;-2.80;99.90;;;;;;474406;250;27530;-77
2023/02/28 07:16:37;;;;;;;8.55;7.65;;;-2.80;99.90;;;;;;484842;245;27379;-74
2023/02/28 07:18:38;;;;;;;7.57;6.70;;;-2.80;99.90;;;;;;474368;250;27516;-76
2023/02/28 07:20:40;;;;;;;8.75;7.00;;;-2.70;99.90;;;;;;484848;245;27421;-76
2023/02/28 07:22:41;;;;;;;12.27;7.55;;;-2.80;99.90;;;;;;474367;250;28392;-76
2023/02/28 07:24:42;;;;;;;9.85;7.00;;;-2.70;99.90;;;;;;484822;245;27958;-75
2023/02/28 07:26:43;;;;;;;7.25;6.47;;;-2.70;99.90;;;;;;484834;245;27438;-76
2023/02/28 07:28:45;;;;;;;8.75;6.93;;;-2.60;99.90;;;;;;474369;251;27511;-77
2023/02/28 07:30:46;;;;;;;8.85;7.00;;;-2.60;99.90;;;;;;484865;245;27430;-75
2023/02/28 07:32:47;;;;;;;8.98;6.43;;;-2.50;99.90;;;;;;474358;250;27611;-75
2023/02/28 07:34:49;;;;;;;13.07;7.57;;;-2.50;99.90;;;;;;484845;245;27390;-75
2023/02/28 07:36:53;;;;;;;11.12;6.85;;;-2.50;99.90;;;;;;484856;245;27171;-77
2023/02/28 07:38:51;;;;;;;7.97;6.32;;;-2.50;99.90;;;;;;474191;251;27520;-75
2023/02/28 07:40:52;;;;;;;7.68;6.72;;;-2.40;99.90;;;;;;484868;245;27835;-75
2023/02/28 07:42:53;;;;;;;9.52;7.30;;;-2.30;99.90;;;;;;474396;250;29096;-76
2023/02/28 07:44:55;;;;;;;11.57;7.37;;;-2.30;99.90;;;;;;484862;245;27490;-74
2023/02/28 07:46:56;;;;;;;7.55;6.75;;;-2.20;99.90;;;;;;474398;250;27496;-74
2023/02/28 07:48:59;;;;;;;12.88;7.40;;;-2.10;99.90;;;;;;484902;245;27402;-75
2023/02/28 07:50:58;;;;;;;6.70;6.00;;;-2.10;99.90;;;;;;474328;250;27500;-76
2023/02/28 07:53:00;;;;;;;9.25;6.15;;;-2.10;99.90;;;;;;484893;245;27437;-75
2023/02/28 07:55:01;;;;;;;12.27;7.82;;;-2.10;99.90;;;;;;474385;250;27528;-75
2023/02/28 07:57:02;;;;;;;7.82;6.53;;;-2.00;99.90;;;;;;484899;245;27472;-77
2023/02/28 07:59:03;;;;;;;7.47;6.20;;;-1.90;99.90;;;;;;474390;250;28023;-76
2023/02/28 08:01:05;;;;;;;8.93;6.78;;;-1.80;99.90;;;;;;484857;245;29018;-74
2023/02/28 08:03:06;;;;;;;10.13;7.32;;;-1.80;99.90;;;;;;474340;250;27547;-74
2023/02/28 08:05:07;;;;;;;8.88;7.25;;;-1.80;99.90;;;;;;484832;245;27402;-75
2023/02/28 08:07:12;;;;;;;10.15;7.40;;;-1.60;99.90;;;;;;484838;245;27431;-76
2023/02/28 08:09:10;;;;;;;7.20;6.50;;;-1.50;99.90;;;;;;474113;251;27661;-75
2023/02/28 08:11:11;;;;;;;9.20;7.32;;;-1.70;99.90;;;;;;484840;245;27481;-75
2023/02/28 08:13:12;;;;;;;11.93;8.25;;;-1.80;99.90;;;;;;484814;245;27469;-75
2023/02/28 08:15:14;;;;;;;10.73;8.13;;;-1.60;99.90;;;;;;484817;245;27517;-75
2023/02/28 08:17:15;;;;;;;8.75;7.25;;;-1.50;99.90;;;;;;484848;245;27830;-75
2023/02/28 08:19:16;;;;;;;9.48;7.80;;;-1.40;99.90;;;;;;474361;250;27995;-75
2023/02/28 08:21:17;;;;;;;9.90;7.28;;;-1.40;99.90;;;;;;484875;245;27443;-75
2023/02/28 08:23:19;;;;;;;6.97;6.28;;;-1.50;99.90;;;;;;474369;251;27528;-75
2023/02/28 08:25:20;;;;;;;9.85;6.90;;;-1.50;99.90;;;;;;484845;245;27500;-75
2023/02/28 08:27:21;;;;;;;9.40;7.47;;;-1.40;99.90;;;;;;474346;251;27516;-75
2023/02/28 08:29:22;;;;;;;9.50;6.68;;;-1.50;99.90;;;;;;484843;245;27493;-75
2023/02/28 08:31:24;;;;;;;10.75;6.80;;;-1.40;99.90;;;;;;474373;250;27556;-75
2023/02/28 08:33:25;;;;;;;7.93;6.65;;;-1.30;99.90;;;;;;484871;245;27512;-76
2023/02/28 08:35:26;;;;;;;8.65;6.90;;;-1.30;99.90;;;;;;474344;250;28760;-75
2023/02/28 08:37:27;;;;;;;10.05;6.85;;;-1.40;99.90;;;;;;484883;245;27843;-75
2023/02/28 08:39:29;;;;;;;6.90;6.20;;;-1.30;99.90;;;;;;474347;250;27663;-77
2023/02/28 08:41:30;;;;;;;7.30;6.62;;;-1.30;99.90;;;;;;484838;245;27456;-74
2023/02/28 08:43:31;;;;;;;7.93;6.12;;;-1.30;99.90;;;;;;474370;250;27539;-75
2023/02/28 08:45:32;;;;;;;8.70;6.95;;;-1.30;99.90;;;;;;484845;245;27363;-75
2023/02/28 08:47:34;;;;;;;7.25;6.55;;;-1.10;99.90;;;;;;474365;250;27531;-75
2023/02/28 08:49:35;;;;;;;9.50;6.55;;;-1.20;99.90;;;;;;484855;245;27491;-76
2023/02/28 08:51:36;;;;;;;7.93;6.43;;;-1.10;99.90;;;;;;474377;250;27548;-75
2023/02/28 08:53:38;;;;;;;9.38;7.05;;;-1.10;99.90;;;;;;484831;245;27502;-74
2023/02/28 08:55:39;;;;;;;8.88;6.65;;;-1.00;99.90;;;;;;474338;250;28729;-75
2023/02/28 08:57:40;;;;;;;7.57;6.15;;;-0.90;99.90;;;;;;484835;245;27861;-75
2023/02/28 08:59:41;;;;;;;8.23;7.12;;;-1.00;99.90;;;;;;474364;250;27536;-75
2023/02/28 09:01:43;;;;;;;9.13;7.32;;;-1.00;99.90;;;;;;484865;245;27363;-75
2023/02/28 09:03:44;;;;;;;8.70;7.05;;;-1.00;99.90;;;;;;474390;251;27616;-76
2023/02/28 09:05:45;;;;;;;10.80;7.95;;;-0.80;99.90;;;;;;484867;245;27378;-76
2023/02/28 09:07:46;;;;;;;8.93;6.90;;;-0.70;99.90;;;;;;474376;251;27594;-75
2023/02/28 09:09:54;;;;;;;9.63;7.15;;;-0.60;99.90;;;;;;484885;245;27425;-76
2023/02/28 09:11:55;;;;;;;10.90;7.18;;;-0.40;99.90;;;;;;474358;250;27488;-75
2023/02/28 09:13:56;;;;;;;11.05;8.05;;;-0.60;99.90;;;;;;484820;245;27417;-75
2023/02/28 09:15:57;;;;;;;10.50;7.80;;;-0.50;99.90;;;;;;474364;251;28084;-75
2023/02/28 09:17:59;;;;;;;9.45;6.90;;;-0.70;99.90;;;;;;484864;245;27830;-76
2023/02/28 09:20:00;;;;;;;9.80;7.30;;;-0.80;99.90;;;;;;474391;250;28003;-76
2023/02/28 09:22:01;;;;;;;7.90;6.55;;;-0.80;99.90;;;;;;484831;245;27398;-75
2023/02/28 09:24:02;;;;;;;11.45;8.18;;;-0.80;99.90;;;;;;474328;250;27551;-76
2023/02/28 09:26:04;;;;;;;7.80;7.00;;;-0.90;99.90;;;;;;484828;245;27490;-75
2023/02/28 09:28:05;;;;;;;9.05;6.80;;;-0.90;99.90;;;;;;473445;250;36161;-75
2023/02/28 09:30:06;;;;;;;8.73;7.28;;;-1.00;99.90;;;;;;484858;245;27419;-75
2023/02/28 09:32:07;;;;;;;9.68;7.72;;;-1.00;99.90;;;;;;474364;250;27483;-75
2023/02/28 09:34:09;;;;;;;11.20;7.50;;;-0.90;99.90;;;;;;484870;245;27493;-75
2023/02/28 09:36:10;;;;;;;7.90;6.90;;;-1.00;99.90;;;;;;474405;250;28082;-75
2023/02/28 09:38:11;;;;;;;14.20;7.07;;;-0.90;99.90;;;;;;484892;245;27905;-75
2023/02/28 09:40:12;;;;;;;8.50;6.97;;;-0.80;99.90;;;;;;474403;251;27542;-76
2023/02/28 09:42:14;;;;;;;8.98;8.07;;;-0.60;99.90;;;;;;484844;245;27358;-76
2023/02/28 09:44:15;;;;;;;11.60;7.87;;;-0.60;99.90;;;;;;474358;250;27591;-75
2023/02/28 09:46:16;;;;;;;17.58;8.18;;;-0.40;99.90;;;;;;484840;245;27391;-76
2023/02/28 09:48:17;;;;;;;10.07;7.87;;;-0.30;99.90;;;;;;484877;245;27442;-76
2023/02/28 09:50:19;;;;;;;11.75;7.97;;;-0.30;99.90;;;;;;484864;245;27395;-75
2023/02/28 09:52:20;;;;;;;14.20;7.95;;;-0.30;99.90;;;;;;474386;250;28025;-75
2023/02/28 09:54:22;;;;;;;10.18;7.30;;;-0.20;99.90;;;;;;484869;245;27912;-75
2023/02/28 09:56:27;;;;;;;7.80;7.00;;;-0.10;99.90;;;;;;474366;250;27524;-75
2023/02/28 09:58:24;;;;;;;8.60;7.62;;;0.00;99.90;;;;;;484591;245;27463;-75
2023/02/28 10:00:25;;;;;;;10.60;7.60;;;0.20;99.90;;;;;;484874;245;27477;-76
2023/02/28 10:02:26;;;;;;;10.20;8.38;;;0.30;99.90;;;;;;484865;245;27351;-75
2023/02/28 10:04:28;;;;;;;13.68;8.65;;;0.20;99.90;;;;;;474383;250;27621;-75
2023/02/28 10:06:30;;;;;;;10.52;8.13;;;0.30;99.90;;;;;;484832;245;27379;-75
2023/02/28 10:08:31;;;;;;;11.75;7.93;;;0.30;99.90;;;;;;474347;250;27589;-75
2023/02/28 10:10:31;;;;;;;8.30;7.50;;;0.20;99.90;;;;;;484847;245;28129;-76
2023/02/28 10:12:33;;;;;;;9.15;7.72;;;0.10;99.90;;;;;;474374;250;27947;-76
2023/02/28 10:14:34;;;;;;;9.00;8.10;;;0.20;99.90;;;;;;484873;245;27890;-76
2023/02/28 10:16:35;;;;;;;10.38;8.07;;;0.30;99.90;;;;;;474398;250;28761;-76
2023/02/28 10:18:37;;;;;;;9.68;7.47;;;0.30;99.90;;;;;;484880;245;27492;-75
2023/02/28 10:20:38;;;;;;;11.27;7.45;;;0.40;99.90;;;;;;474318;251;27520;-76
2023/02/28 10:22:39;;;;;;;9.50;8.10;;;0.30;99.90;;;;;;484891;245;27403;-77
2023/02/28 10:24:40;;;;;;;9.68;8.25;;;0.40;99.90;;;;;;474383;250;27529;-76
2023/02/28 10:26:41;;;;;;;9.23;7.90;;;0.40;99.90;;;;;;484832;245;27485;-75
2023/02/28 10:28:43;;;;;;;9.95;7.03;;;0.40;99.90;;;;;;474386;250;27483;-76